Racecast

Kyle Sunzeri

Bella Vista (CA) · 12 · CVCCA D2SJS D2 · Compare head to head

Athlete rating 112.0 2015 TF season
Best race 115.9 XC
Races 77
Seasons 4 2012 — 2015

RankedNation #43407·CA #6314·CA D2 #2628·SJS #702·SJS D2 #180·CVC #81·Team #32 ?

Speed rating — all races

Cross Country

XC speed rating

2014 XC 111.5

Bella Vista (CA) · Grade 12

Date Meet Event Result Place Rating Difficulty PR/SR Flags
2014-10-31 Willow Hills Reservoir Course 5000m 18:28.5 44th · 13th on team 115.9 +0.045 ★CR ★R SR CSR RSR
2014-10-18 Willow Hills Reservoir Course 3400m 12:59.4 32nd · 6th on team 108.7 +0.043 SR CSR
2014-10-11 Crystal Springs 4747m 17:54 9th · 4th on team 114.9 +0.063 ★PR ★CR R SR CSR RSR
2014-09-27 Elkhorn Golf Course 3218m -0.019 ★CR SR CSR
2014-09-17 Maidu Park 5000m 18:46.3 46th · 11th on team 109.6 -0.007 SR CSR RSR
2014-09-13 Nevada Union High School 4828m 19:41.1 18th · 4th on team 108.5 +0.076 ★PR ★CR SR CSR RSR

2013 XC 111.6

Bella Vista (CA) · Grade 11

Date Meet Event Result Place Rating Difficulty PR/SR Flags
2013-11-01 Willow Hills Reservoir Course 5000m 18:58.2 32nd · 9th on team 113.4 +0.045 CR CSR
2013-10-19 Willow Hills Reservoir Course 5000m 19:01.5 74th · 5th on team 113.2 +0.045 CR CSR
2013-10-12 Woodward Park 5000m 18:22 109th · 1st on team 113.3 +0.013 ★CR CSR
2013-10-09 Maidu Park 5000m 17:54.4 28th · 8th on team 113.9 -0.007 ★PR ★CR R SR CSR RSR
2013-09-18 Maidu Park 5000m 19:02 39th · 10th on team 107.5 -0.007 PR CR SR CSR
2013-09-07 Lagoon Valley Park 3218m 12:52 9th · 1st on team 110.6 +0.121 ★CR SR CSR RSR
2013-08-23 Bella Vista High School 3200m 11:44 8th · 8th on team 109.6 +0.021 ★PR ★CR SR CSR RSR

2012 XC 106.7

Bella Vista (CA) · Grade 10

Date Meet Event Result Place Rating Difficulty PR/SR Flags
2012-11-03 Calaveras County Fairgrounds 3218m 12:48 50th · 6th on team 107.9 +0.084 ★CR CSR
2012-10-26 Willow Hills Reservoir Course 3400m 13:11.4 20th · 8th on team 106.3 +0.043
2012-10-13 Willow Hills Reservoir Course 3400m 12:49.5 27th · 7th on team 109.7 +0.043 ★PR ★CR R SR CSR RSR
2012-10-10 Granite Park 3200m 11:46.9 12th · 7th on team 105.9 -0.013 PR ★CR SR CSR
2012-10-06 Granite Park 3540m 13:10 23rd · 8th on team 106.5 -0.001 ★PR ★CR R SR CSR RSR
2012-08-24 Woodland High School 3218m 12:31 10th · 6th on team 103.5 +0.024 ★PR ★CR R SR CSR RSR

Track & Field

TF speed rating

2015 TF 112.1

Bella Vista (CA) · Grade 12

Date Meet Event Result Place Rating Difficulty PR/SR Flags
2015-05-15 CVC Finals 400m 53 7th · 2nd on team -0.024
2015-05-13 CVC Trials 400m 53.31 8th · 2nd on team -0.024
2015-04-25 Bella Vista Bronco Invitational 400m 52.73 4th · 1st on team -0.036
2015-04-08 CVC Center Meet 2B 400m 53.33 4th · 2nd on team -0.022
2015-03-27 Bronco Roundup Distance Carnival 800m 2:14.84 49th · 9th on team 112.1 -0.036 ★PR SR RSR
2015-03-21 Depth Charge 200m 24.64 18th · 2nd on team -0.020
2015-03-21 Depth Charge 400m 52.53 3rd · 1st on team -0.020
2015-03-18 CVC Center Meet 1B 400m 52.57 3rd · 1st on team -0.036
2015-03-14 Sturgeon Invitational (formerly the King Gilbert Invite) 400m 52.06 6th · 1st on team -0.027 ★PR SR
2015-03-14 Sturgeon Invitational (formerly the King Gilbert Invite) 200m 23.88 15th · 2nd on team -0.027 ★PR SR
2015-02-25 Red and Black Intrasquad 400m 53.95 1st · 1st on team -0.036 SR
2015-02-25 Red and Black Intrasquad 100m 11.91 2nd · 2nd on team -0.036 ★PR SR

2014 TF 103.8

Bella Vista (CA) · Grade 11

Date Meet Event Result Place Rating Difficulty PR/SR Flags
2014-05-21 Sac Joaquin Section Division II-III Prelims 200m 23.9 17th · 2nd on team -0.036 PR SR
2014-05-21 Sac Joaquin Section Division II-III Prelims 400m 54.31 21st · 2nd on team -0.036
2014-05-16 Capital Valley Conference Finals 400m 52.94 4th · 2nd on team -0.028 PR SR
2014-05-16 Capital Valley Conference Finals 200m 24.75 4th · 3rd on team -0.028
2014-05-09 Nevada Union Invitational 400m 54.02 16th · 1st on team -0.015 PR SR
2014-04-30 CVC Center Meet 3 200m 24.67 5th · 4th on team -0.036
2014-04-30 CVC Center Meet 3 400m 55.39 6th · 2nd on team -0.036
2014-04-26 Bella Vista Bronco Invitational 400m 55.24 19th · 2nd on team -0.036 SR
2014-04-09 CVC Center Meet 2 200m 24.63 9th · 4th on team -0.025
2014-04-09 CVC Center Meet 2 400m 56.51 3rd · 1st on team -0.025
2014-03-19 CVC Center Meet 1 200m 24.22 6th · 5th on team -0.020 PR SR
2014-03-19 CVC Center Meet 1 400m 55.47 5th · 3rd on team -0.020 SR
2014-03-15 Folsom Depth Charge 400m 55.55 11th · 2nd on team -0.020 SR
2014-02-26 Bella Vista Intra-Squad 800m 2:25.42 13th · 13th on team 103.8 -0.036 SR RSR
2014-02-26 Bella Vista Intra-Squad 100m 13.02 9th · 9th on team -0.036 SR

2013 TF 107.1

Bella Vista (CA) · Grade 10

Date Meet Event Result Place Rating Difficulty PR/SR Flags
2013-05-10 CVC Finals 400m 55.55 1st · 1st on team -0.025
2013-05-10 CVC Finals 800m 2:15.27 7th · 5th on team 112.2 -0.025 PR R SR RSR
2013-05-04 Frosh/Soph Sac Town Races 400m 54.58 8th · 2nd on team -0.024 PR SR
2013-05-04 Frosh/Soph Sac Town Races 200m 25.12 22nd · 4th on team -0.024 PR SR
2013-04-26 Sheldon Distance Carnival 800m 2:20.4 23rd · 2nd on team 107.4 -0.031
2013-04-17 CVC Center Meet 3 800m 2:22.95 9th · 4th on team 107.2 -0.020
2013-04-17 CVC Center Meet 3 400m 56.75 1st · 1st on team -0.020
2013-04-13 Bella Vista Bronco Invitational 800m 2:19 19th · 3rd on team 108.2 -0.036 PR SR RSR
2013-04-13 Bella Vista Bronco Invitational 400m 55.58 7th · 1st on team -0.036
2013-03-22 Bronco Roundup Distance Carnival 800m 2:22.33 20th · 2nd on team 106.1 -0.036 PR SR RSR
2013-03-20 CVC Center Meet 2 400m 55.03 1st · 1st on team -0.028
2013-03-20 CVC Center Meet 2 200m 25.15 5th · 3rd on team -0.028 PR SR
2013-03-16 Depth Charge 400m 54.91 1st · 1st on team -0.020 PR SR
2013-03-09 King/Gilbert Invitational 400m 58.02 10th · 2nd on team -0.027
2013-03-06 CVC Center Meet 1 400m 57.33 3rd · 1st on team -0.036 PR SR
2013-03-06 CVC Center Meet 1 200m 25.5 10th · 3rd on team -0.036 PR SR
2013-02-27 Red and Black Intrasquad Pentathlon 800m 2:27.38 8th · 8th on team 101.7 -0.036 PR SR RSR
2013-02-27 Red and Black Intrasquad Pentathlon 100m 12.67 6th · 6th on team -0.036 PR SR

2012 TF

Bella Vista (CA) · Grade 9

Date Meet Event Result Place Rating Difficulty PR/SR Flags
2012-05-11 Capital Valley Conference Finals 400m 58.42 6th · 1st on team -0.020 PR SR
2012-05-11 Capital Valley Conference Finals 200m 26.56 15th · 2nd on team -0.020
2012-05-05 Bella Vista Bronco Invitational 400m 59.29 8th · 2nd on team -0.036 PR SR
2012-04-18 CVC Center Meet 3 200m 26.38 9th · 2nd on team -0.028 PR SR
2012-04-18 CVC Center Meet 3 400m 59.74 7th · 2nd on team -0.028 PR SR
2012-04-14 Depth Charge 400m 1:03.91 4th · 1st on team -0.020
2012-04-14 Depth Charge 200m 26.48 3rd · 1st on team -0.020 PR SR
2012-03-28 CVC Center Meet 2 200m 27.55 15th · 3rd on team -0.025 PR SR
2012-03-28 CVC Center Meet 2 400m 1:03.3 13th · 4th on team -0.025 PR SR
2012-03-21 CVC Center Meet 1 400m 1:04.85 13th · 3rd on team -0.036
2012-03-21 CVC Center Meet 1 200m 27.72 17th · 2nd on team -0.036 PR SR
2012-03-10 Bob King - Don Gilbert Invitational 400m 1:03.35 28th · 3rd on team -0.027 PR SR
2012-03-07 Bella Vista - Ponderosa Dual 100m 13.08 7th · 6th on team -0.036 PR SR